sensor_id;sensor_type;location;lat;lon;timestamp;P1;durP1;ratioP1;P2;durP2;ratioP2
74074;SDS011;62428;51.412;5.432;2023-02-12T00:00:58;16.63;;;8.23;;
74074;SDS011;62428;51.412;5.432;2023-02-12T00:03:23;19.30;;;7.93;;
74074;SDS011;62428;51.412;5.432;2023-02-12T00:05:49;17.17;;;8.80;;
74074;SDS011;62428;51.412;5.432;2023-02-12T00:08:14;21.13;;;9.98;;
74074;SDS011;62428;51.412;5.432;2023-02-12T00:10:40;24.17;;;10.23;;
74074;SDS011;62428;51.412;5.432;2023-02-12T00:13:07;20.15;;;9.60;;
74074;SDS011;62428;51.412;5.432;2023-02-12T00:15:33;19.75;;;9.90;;
74074;SDS011;62428;51.412;5.432;2023-02-12T00:18:02;20.58;;;10.07;;
74074;SDS011;62428;51.412;5.432;2023-02-12T00:20:28;21.93;;;10.13;;
74074;SDS011;62428;51.412;5.432;2023-02-12T00:22:53;17.70;;;9.70;;
74074;SDS011;62428;51.412;5.432;2023-02-12T00:25:18;19.47;;;9.70;;
74074;SDS011;62428;51.412;5.432;2023-02-12T00:27:44;22.20;;;9.40;;
74074;SDS011;62428;51.412;5.432;2023-02-12T00:30:09;18.93;;;9.23;;
74074;SDS011;62428;51.412;5.432;2023-02-12T00:32:35;18.30;;;9.35;;
74074;SDS011;62428;51.412;5.432;2023-02-12T00:35:01;18.67;;;8.85;;
74074;SDS011;62428;51.412;5.432;2023-02-12T00:37:26;19.03;;;9.27;;
74074;SDS011;62428;51.412;5.432;2023-02-12T00:39:51;22.30;;;8.87;;
74074;SDS011;62428;51.412;5.432;2023-02-12T00:42:17;21.47;;;9.53;;
74074;SDS011;62428;51.412;5.432;2023-02-12T00:44:42;17.73;;;9.40;;
74074;SDS011;62428;51.412;5.432;2023-02-12T00:47:07;23.97;;;9.70;;
74074;SDS011;62428;51.412;5.432;2023-02-12T00:49:33;20.43;;;8.90;;
74074;SDS011;62428;51.412;5.432;2023-02-12T00:51:59;19.53;;;9.10;;
74074;SDS011;62428;51.412;5.432;2023-02-12T00:54:26;20.20;;;9.20;;
74074;SDS011;62428;51.412;5.432;2023-02-12T00:56:52;18.92;;;8.82;;
74074;SDS011;62428;51.412;5.432;2023-02-12T00:59:17;18.83;;;9.03;;
74074;SDS011;62428;51.412;5.432;2023-02-12T01:01:42;22.40;;;10.23;;
74074;SDS011;62428;51.412;5.432;2023-02-12T01:04:08;18.52;;;9.30;;
74074;SDS011;62428;51.412;5.432;2023-02-12T01:06:33;20.92;;;9.18;;
74074;SDS011;62428;51.412;5.432;2023-02-12T01:08:58;22.77;;;9.60;;
74074;SDS011;62428;51.412;5.432;2023-02-12T01:11:24;24.10;;;9.03;;
74074;SDS011;62428;51.412;5.432;2023-02-12T01:13:49;21.23;;;9.33;;
74074;SDS011;62428;51.412;5.432;2023-02-12T01:16:16;18.43;;;8.93;;
74074;SDS011;62428;51.412;5.432;2023-02-12T01:18:44;19.42;;;8.75;;
74074;SDS011;62428;51.412;5.432;2023-02-12T01:21:11;20.83;;;9.10;;
74074;SDS011;62428;51.412;5.432;2023-02-12T01:23:44;19.63;;;9.10;;
74074;SDS011;62428;51.412;5.432;2023-02-12T01:26:10;20.83;;;8.50;;
74074;SDS011;62428;51.412;5.432;2023-02-12T01:28:39;18.55;;;8.80;;
74074;SDS011;62428;51.412;5.432;2023-02-12T01:31:07;19.88;;;9.07;;
74074;SDS011;62428;51.412;5.432;2023-02-12T01:33:35;15.07;;;8.02;;
74074;SDS011;62428;51.412;5.432;2023-02-12T01:36:01;19.17;;;9.40;;
74074;SDS011;62428;51.412;5.432;2023-02-12T01:38:26;20.27;;;8.73;;
74074;SDS011;62428;51.412;5.432;2023-02-12T01:40:52;17.00;;;7.80;;
74074;SDS011;62428;51.412;5.432;2023-02-12T01:43:17;16.33;;;8.13;;
74074;SDS011;62428;51.412;5.432;2023-02-12T01:45:44;18.65;;;8.23;;
74074;SDS011;62428;51.412;5.432;2023-02-12T01:48:12;19.58;;;8.48;;
74074;SDS011;62428;51.412;5.432;2023-02-12T01:50:39;17.23;;;8.13;;
74074;SDS011;62428;51.412;5.432;2023-02-12T01:53:06;16.73;;;8.25;;
74074;SDS011;62428;51.412;5.432;2023-02-12T01:55:32;15.05;;;7.80;;
74074;SDS011;62428;51.412;5.432;2023-02-12T01:57:58;17.13;;;8.40;;
74074;SDS011;62428;51.412;5.432;2023-02-12T02:00:23;17.33;;;8.23;;
74074;SDS011;62428;51.412;5.432;2023-02-12T02:02:51;17.15;;;8.48;;
74074;SDS011;62428;51.412;5.432;2023-02-12T02:05:22;21.58;;;8.88;;
74074;SDS011;62428;51.412;5.432;2023-02-12T02:07:55;17.70;;;8.20;;
74074;SDS011;62428;51.412;5.432;2023-02-12T02:10:20;17.75;;;8.25;;
74074;SDS011;62428;51.412;5.432;2023-02-12T02:12:46;15.30;;;8.10;;
74074;SDS011;62428;51.412;5.432;2023-02-12T02:15:31;17.77;;;8.20;;
74074;SDS011;62428;51.412;5.432;2023-02-12T02:18:01;20.23;;;9.40;;
74074;SDS011;62428;51.412;5.432;2023-02-12T02:23:51;18.85;;;8.23;;
74074;SDS011;62428;51.412;5.432;2023-02-12T02:27:01;20.15;;;8.48;;
74074;SDS011;62428;51.412;5.432;2023-02-12T02:32:39;17.60;;;7.93;;
74074;SDS011;62428;51.412;5.432;2023-02-12T02:37:58;20.27;;;9.32;;
74074;SDS011;62428;51.412;5.432;2023-02-12T02:40:41;18.35;;;8.43;;
74074;SDS011;62428;51.412;5.432;2023-02-12T02:43:20;20.13;;;8.13;;
74074;SDS011;62428;51.412;5.432;2023-02-12T02:45:54;21.73;;;8.93;;
74074;SDS011;62428;51.412;5.432;2023-02-12T02:48:31;16.95;;;8.70;;
74074;SDS011;62428;51.412;5.432;2023-02-12T02:51:07;17.13;;;8.52;;
74074;SDS011;62428;51.412;5.432;2023-02-12T02:53:48;19.90;;;8.55;;
74074;SDS011;62428;51.412;5.432;2023-02-12T02:56:19;17.17;;;8.02;;
74074;SDS011;62428;51.412;5.432;2023-02-12T02:58:48;20.30;;;8.87;;
74074;SDS011;62428;51.412;5.432;2023-02-12T03:01:24;15.25;;;8.48;;
74074;SDS011;62428;51.412;5.432;2023-02-12T03:04:06;17.55;;;8.38;;
74074;SDS011;62428;51.412;5.432;2023-02-12T03:06:40;19.50;;;9.52;;
74074;SDS011;62428;51.412;5.432;2023-02-12T03:11:44;20.07;;;9.23;;
74074;SDS011;62428;51.412;5.432;2023-02-12T03:14:12;18.33;;;8.65;;
74074;SDS011;62428;51.412;5.432;2023-02-12T03:16:56;18.17;;;8.50;;
74074;SDS011;62428;51.412;5.432;2023-02-12T03:19:36;19.02;;;9.27;;
74074;SDS011;62428;51.412;5.432;2023-02-12T03:22:07;18.92;;;8.30;;
74074;SDS011;62428;51.412;5.432;2023-02-12T03:24:47;18.60;;;8.50;;
74074;SDS011;62428;51.412;5.432;2023-02-12T03:29:51;18.05;;;8.50;;
74074;SDS011;62428;51.412;5.432;2023-02-12T03:32:23;19.17;;;8.88;;
74074;SDS011;62428;51.412;5.432;2023-02-12T03:35:07;20.37;;;8.37;;
74074;SDS011;62428;51.412;5.432;2023-02-12T03:37:40;21.23;;;8.77;;
74074;SDS011;62428;51.412;5.432;2023-02-12T03:40:18;18.63;;;8.18;;
74074;SDS011;62428;51.412;5.432;2023-02-12T03:42:52;18.65;;;8.63;;
74074;SDS011;62428;51.412;5.432;2023-02-12T03:50:27;23.80;;;8.57;;
74074;SDS011;62428;51.412;5.432;2023-02-12T03:53:01;19.10;;;8.82;;
74074;SDS011;62428;51.412;5.432;2023-02-12T03:55:27;19.30;;;9.23;;
74074;SDS011;62428;51.412;5.432;2023-02-12T03:57:55;19.70;;;9.20;;
74074;SDS011;62428;51.412;5.432;2023-02-12T04:00:26;16.20;;;8.05;;
74074;SDS011;62428;51.412;5.432;2023-02-12T04:02:52;19.08;;;9.15;;
74074;SDS011;62428;51.412;5.432;2023-02-12T04:05:19;16.77;;;8.60;;
74074;SDS011;62428;51.412;5.432;2023-02-12T04:07:47;22.13;;;8.68;;
74074;SDS011;62428;51.412;5.432;2023-02-12T04:10:14;17.63;;;8.60;;
74074;SDS011;62428;51.412;5.432;2023-02-12T04:15:28;20.35;;;8.80;;
74074;SDS011;62428;51.412;5.432;2023-02-12T04:28:37;19.47;;;8.73;;
74074;SDS011;62428;51.412;5.432;2023-02-12T04:31:16;17.33;;;8.88;;
74074;SDS011;62428;51.412;5.432;2023-02-12T04:33:47;20.88;;;10.00;;
74074;SDS011;62428;51.412;5.432;2023-02-12T04:36:25;20.08;;;9.43;;
74074;SDS011;62428;51.412;5.432;2023-02-12T04:38:59;20.42;;;9.02;;
74074;SDS011;62428;51.412;5.432;2023-02-12T04:41:29;18.85;;;8.48;;
74074;SDS011;62428;51.412;5.432;2023-02-12T04:43:55;20.02;;;9.15;;
74074;SDS011;62428;51.412;5.432;2023-02-12T04:46:20;18.47;;;8.83;;
74074;SDS011;62428;51.412;5.432;2023-02-12T04:48:51;18.23;;;8.90;;
74074;SDS011;62428;51.412;5.432;2023-02-12T04:51:19;15.93;;;8.05;;
74074;SDS011;62428;51.412;5.432;2023-02-12T04:53:45;22.00;;;8.80;;
74074;SDS011;62428;51.412;5.432;2023-02-12T04:56:10;19.13;;;8.47;;
74074;SDS011;62428;51.412;5.432;2023-02-12T04:58:37;16.75;;;8.40;;
74074;SDS011;62428;51.412;5.432;2023-02-12T05:01:03;16.48;;;8.43;;
74074;SDS011;62428;51.412;5.432;2023-02-12T05:03:28;17.93;;;8.40;;
74074;SDS011;62428;51.412;5.432;2023-02-12T05:05:53;17.87;;;8.87;;
74074;SDS011;62428;51.412;5.432;2023-02-12T05:08:18;17.33;;;8.43;;
74074;SDS011;62428;51.412;5.432;2023-02-12T05:10:44;18.40;;;8.57;;
74074;SDS011;62428;51.412;5.432;2023-02-12T05:13:09;19.00;;;8.80;;
74074;SDS011;62428;51.412;5.432;2023-02-12T05:15:37;16.40;;;8.37;;
74074;SDS011;62428;51.412;5.432;2023-02-12T05:18:03;21.67;;;8.75;;
74074;SDS011;62428;51.412;5.432;2023-02-12T05:20:28;18.90;;;8.90;;
74074;SDS011;62428;51.412;5.432;2023-02-12T05:22:53;20.10;;;9.30;;
74074;SDS011;62428;51.412;5.432;2023-02-12T05:25:19;20.20;;;8.80;;
74074;SDS011;62428;51.412;5.432;2023-02-12T05:27:44;18.02;;;8.98;;
74074;SDS011;62428;51.412;5.432;2023-02-12T05:30:10;19.97;;;9.27;;
74074;SDS011;62428;51.412;5.432;2023-02-12T05:32:35;17.73;;;8.60;;
74074;SDS011;62428;51.412;5.432;2023-02-12T05:35:00;21.03;;;9.13;;
74074;SDS011;62428;51.412;5.432;2023-02-12T05:37:26;19.67;;;8.63;;
74074;SDS011;62428;51.412;5.432;2023-02-12T05:39:51;19.77;;;8.80;;
74074;SDS011;62428;51.412;5.432;2023-02-12T05:42:17;17.83;;;8.70;;
74074;SDS011;62428;51.412;5.432;2023-02-12T05:44:43;22.65;;;9.52;;
74074;SDS011;62428;51.412;5.432;2023-02-12T05:47:08;19.50;;;8.63;;
74074;SDS011;62428;51.412;5.432;2023-02-12T05:49:33;19.37;;;8.80;;
74074;SDS011;62428;51.412;5.432;2023-02-12T05:51:59;18.80;;;8.90;;
74074;SDS011;62428;51.412;5.432;2023-02-12T05:54:24;21.43;;;9.23;;
74074;SDS011;62428;51.412;5.432;2023-02-12T05:56:49;18.90;;;9.20;;
74074;SDS011;62428;51.412;5.432;2023-02-12T05:59:17;19.70;;;9.68;;
74074;SDS011;62428;51.412;5.432;2023-02-12T06:01:45;21.15;;;8.82;;
74074;SDS011;62428;51.412;5.432;2023-02-12T06:04:13;17.23;;;8.13;;
74074;SDS011;62428;51.412;5.432;2023-02-12T06:06:43;17.50;;;8.35;;
74074;SDS011;62428;51.412;5.432;2023-02-12T06:09:09;17.50;;;8.57;;
74074;SDS011;62428;51.412;5.432;2023-02-12T06:11:36;20.35;;;8.82;;
74074;SDS011;62428;51.412;5.432;2023-02-12T06:14:02;21.10;;;9.13;;
74074;SDS011;62428;51.412;5.432;2023-02-12T06:16:31;18.52;;;8.77;;
74074;SDS011;62428;51.412;5.432;2023-02-12T06:18:57;21.67;;;9.18;;
74074;SDS011;62428;51.412;5.432;2023-02-12T06:21:26;20.17;;;8.32;;
74074;SDS011;62428;51.412;5.432;2023-02-12T06:23:52;20.08;;;9.35;;
74074;SDS011;62428;51.412;5.432;2023-02-12T06:26:18;21.30;;;8.60;;
74074;SDS011;62428;51.412;5.432;2023-02-12T06:28:44;19.13;;;8.20;;
74074;SDS011;62428;51.412;5.432;2023-02-12T06:31:17;15.95;;;8.18;;
74074;SDS011;62428;51.412;5.432;2023-02-12T06:33:44;19.07;;;8.77;;
74074;SDS011;62428;51.412;5.432;2023-02-12T06:36:10;17.75;;;8.20;;
74074;SDS011;62428;51.412;5.432;2023-02-12T06:38:35;20.00;;;9.00;;
74074;SDS011;62428;51.412;5.432;2023-02-12T06:41:01;17.00;;;8.10;;
74074;SDS011;62428;51.412;5.432;2023-02-12T06:43:27;18.48;;;8.27;;
74074;SDS011;62428;51.412;5.432;2023-02-12T06:45:52;19.37;;;9.93;;
74074;SDS011;62428;51.412;5.432;2023-02-12T06:48:18;18.37;;;8.77;;
74074;SDS011;62428;51.412;5.432;2023-02-12T06:50:43;18.30;;;8.23;;
74074;SDS011;62428;51.412;5.432;2023-02-12T06:53:08;19.73;;;8.83;;
74074;SDS011;62428;51.412;5.432;2023-02-12T06:55:33;16.73;;;8.27;;
74074;SDS011;62428;51.412;5.432;2023-02-12T06:57:59;19.17;;;8.33;;
74074;SDS011;62428;51.412;5.432;2023-02-12T07:00:24;21.20;;;9.13;;
74074;SDS011;62428;51.412;5.432;2023-02-12T07:02:53;21.23;;;8.63;;
74074;SDS011;62428;51.412;5.432;2023-02-12T07:05:20;18.73;;;8.63;;
74074;SDS011;62428;51.412;5.432;2023-02-12T07:07:46;20.45;;;9.40;;
74074;SDS011;62428;51.412;5.432;2023-02-12T07:10:11;16.93;;;8.50;;
74074;SDS011;62428;51.412;5.432;2023-02-12T07:12:37;23.23;;;9.87;;
74074;SDS011;62428;51.412;5.432;2023-02-12T07:15:02;21.50;;;9.57;;
74074;SDS011;62428;51.412;5.432;2023-02-12T07:17:28;22.03;;;9.30;;
74074;SDS011;62428;51.412;5.432;2023-02-12T07:19:54;21.92;;;9.57;;
74074;SDS011;62428;51.412;5.432;2023-02-12T07:22:20;18.80;;;8.83;;
74074;SDS011;62428;51.412;5.432;2023-02-12T07:24:46;20.50;;;9.57;;
74074;SDS011;62428;51.412;5.432;2023-02-12T07:27:11;18.95;;;8.82;;
74074;SDS011;62428;51.412;5.432;2023-02-12T07:29:37;19.80;;;9.07;;
74074;SDS011;62428;51.412;5.432;2023-02-12T07:32:02;21.53;;;9.67;;
74074;SDS011;62428;51.412;5.432;2023-02-12T07:34:28;19.47;;;10.17;;
74074;SDS011;62428;51.412;5.432;2023-02-12T07:36:53;18.67;;;8.80;;
74074;SDS011;62428;51.412;5.432;2023-02-12T07:39:18;21.17;;;9.70;;
74074;SDS011;62428;51.412;5.432;2023-02-12T07:41:44;22.88;;;10.05;;
74074;SDS011;62428;51.412;5.432;2023-02-12T07:44:10;20.07;;;9.33;;
74074;SDS011;62428;51.412;5.432;2023-02-12T07:46:37;22.43;;;9.50;;
74074;SDS011;62428;51.412;5.432;2023-02-12T07:49:05;18.02;;;9.27;;
74074;SDS011;62428;51.412;5.432;2023-02-12T07:51:32;19.98;;;9.25;;
74074;SDS011;62428;51.412;5.432;2023-02-12T07:53:58;23.20;;;9.52;;
74074;SDS011;62428;51.412;5.432;2023-02-12T07:56:27;20.13;;;9.55;;
74074;SDS011;62428;51.412;5.432;2023-02-12T07:58:57;22.80;;;9.13;;
74074;SDS011;62428;51.412;5.432;2023-02-12T08:01:27;23.63;;;9.02;;
74074;SDS011;62428;51.412;5.432;2023-02-12T08:03:58;21.25;;;9.88;;
74074;SDS011;62428;51.412;5.432;2023-02-12T08:06:26;21.90;;;10.35;;
74074;SDS011;62428;51.412;5.432;2023-02-12T08:08:53;23.02;;;10.30;;
74074;SDS011;62428;51.412;5.432;2023-02-12T08:11:20;20.37;;;9.57;;
74074;SDS011;62428;51.412;5.432;2023-02-12T08:13:46;22.25;;;9.70;;
74074;SDS011;62428;51.412;5.432;2023-02-12T08:16:12;21.70;;;9.77;;
74074;SDS011;62428;51.412;5.432;2023-02-12T08:18:40;23.55;;;10.35;;
74074;SDS011;62428;51.412;5.432;2023-02-12T08:23:33;20.50;;;10.05;;
74074;SDS011;62428;51.412;5.432;2023-02-12T08:28:40;20.70;;;9.97;;
74074;SDS011;62428;51.412;5.432;2023-02-12T08:31:08;23.92;;;10.10;;
74074;SDS011;62428;51.412;5.432;2023-02-12T08:33:36;22.27;;;10.48;;
74074;SDS011;62428;51.412;5.432;2023-02-12T08:36:05;19.90;;;9.50;;
74074;SDS011;62428;51.412;5.432;2023-02-12T08:38:33;25.52;;;9.68;;
74074;SDS011;62428;51.412;5.432;2023-02-12T08:41:04;28.05;;;10.18;;
74074;SDS011;62428;51.412;5.432;2023-02-12T08:43:32;25.67;;;9.77;;
74074;SDS011;62428;51.412;5.432;2023-02-12T08:46:04;22.88;;;9.95;;
74074;SDS011;62428;51.412;5.432;2023-02-12T08:48:34;22.42;;;9.75;;
74074;SDS011;62428;51.412;5.432;2023-02-12T08:51:10;23.93;;;9.87;;
74074;SDS011;62428;51.412;5.432;2023-02-12T08:53:38;23.92;;;9.80;;
74074;SDS011;62428;51.412;5.432;2023-02-12T08:56:05;27.80;;;10.85;;
74074;SDS011;62428;51.412;5.432;2023-02-12T08:58:31;22.70;;;10.40;;
74074;SDS011;62428;51.412;5.432;2023-02-12T09:00:57;22.60;;;10.38;;
74074;SDS011;62428;51.412;5.432;2023-02-12T09:03:23;22.83;;;9.90;;
74074;SDS011;62428;51.412;5.432;2023-02-12T09:05:48;22.40;;;11.00;;
74074;SDS011;62428;51.412;5.432;2023-02-12T09:08:14;23.25;;;10.70;;
74074;SDS011;62428;51.412;5.432;2023-02-12T09:10:40;21.13;;;10.20;;
74074;SDS011;62428;51.412;5.432;2023-02-12T09:13:07;25.90;;;11.00;;
74074;SDS011;62428;51.412;5.432;2023-02-12T09:15:36;23.35;;;10.70;;
74074;SDS011;62428;51.412;5.432;2023-02-12T09:18:03;25.00;;;10.88;;
74074;SDS011;62428;51.412;5.432;2023-02-12T09:20:29;29.45;;;10.98;;
74074;SDS011;62428;51.412;5.432;2023-02-12T09:22:54;25.00;;;10.87;;
74074;SDS011;62428;51.412;5.432;2023-02-12T09:25:21;22.48;;;10.63;;
74074;SDS011;62428;51.412;5.432;2023-02-12T09:27:47;22.53;;;10.30;;
74074;SDS011;62428;51.412;5.432;2023-02-12T09:30:12;24.85;;;10.48;;
74074;SDS011;62428;51.412;5.432;2023-02-12T09:32:38;25.55;;;11.23;;
74074;SDS011;62428;51.412;5.432;2023-02-12T09:35:03;22.73;;;9.90;;
74074;SDS011;62428;51.412;5.432;2023-02-12T09:37:28;22.40;;;9.87;;
74074;SDS011;62428;51.412;5.432;2023-02-12T09:39:54;21.70;;;10.13;;
74074;SDS011;62428;51.412;5.432;2023-02-12T09:42:22;21.45;;;10.32;;
74074;SDS011;62428;51.412;5.432;2023-02-12T09:47:56;24.38;;;9.52;;
74074;SDS011;62428;51.412;5.432;2023-02-12T09:50:35;22.95;;;9.15;;
74074;SDS011;62428;51.412;5.432;2023-02-12T09:53:24;24.92;;;10.27;;
74074;SDS011;62428;51.412;5.432;2023-02-12T09:55:53;22.65;;;10.38;;
74074;SDS011;62428;51.412;5.432;2023-02-12T09:58:22;21.07;;;9.40;;
74074;SDS011;62428;51.412;5.432;2023-02-12T10:00:54;22.02;;;10.15;;
74074;SDS011;62428;51.412;5.432;2023-02-12T10:03:19;21.57;;;9.40;;
74074;SDS011;62428;51.412;5.432;2023-02-12T10:05:52;22.83;;;9.63;;
74074;SDS011;62428;51.412;5.432;2023-02-12T10:11:59;22.77;;;9.70;;
74074;SDS011;62428;51.412;5.432;2023-02-12T10:14:37;23.23;;;9.23;;
74074;SDS011;62428;51.412;5.432;2023-02-12T10:19:57;23.33;;;9.45;;
74074;SDS011;62428;51.412;5.432;2023-02-12T10:27:51;22.70;;;8.88;;
74074;SDS011;62428;51.412;5.432;2023-02-12T10:30:20;22.73;;;9.47;;
74074;SDS011;62428;51.412;5.432;2023-02-12T10:32:53;24.80;;;9.65;;
74074;SDS011;62428;51.412;5.432;2023-02-12T10:35:24;21.00;;;9.52;;
74074;SDS011;62428;51.412;5.432;2023-02-12T10:42:52;21.80;;;9.15;;
74074;SDS011;62428;51.412;5.432;2023-02-12T10:45:29;21.52;;;10.05;;
74074;SDS011;62428;51.412;5.432;2023-02-12T10:48:02;19.38;;;9.20;;
74074;SDS011;62428;51.412;5.432;2023-02-12T10:53:07;23.55;;;10.93;;
74074;SDS011;62428;51.412;5.432;2023-02-12T10:55:41;23.08;;;10.00;;
74074;SDS011;62428;51.412;5.432;2023-02-12T10:58:15;20.50;;;9.73;;
74074;SDS011;62428;51.412;5.432;2023-02-12T11:00:43;24.83;;;11.70;;
74074;SDS011;62428;51.412;5.432;2023-02-12T11:05:41;20.73;;;10.10;;
74074;SDS011;62428;51.412;5.432;2023-02-12T11:10:51;19.42;;;9.40;;
74074;SDS011;62428;51.412;5.432;2023-02-12T11:13:21;23.88;;;10.07;;
74074;SDS011;62428;51.412;5.432;2023-02-12T11:15:49;22.17;;;9.50;;
74074;SDS011;62428;51.412;5.432;2023-02-12T11:18:25;25.35;;;10.23;;
74074;SDS011;62428;51.412;5.432;2023-02-12T11:20:57;20.70;;;9.75;;
74074;SDS011;62428;51.412;5.432;2023-02-12T11:23:26;22.00;;;9.45;;
74074;SDS011;62428;51.412;5.432;2023-02-12T11:25:57;23.63;;;9.57;;
74074;SDS011;62428;51.412;5.432;2023-02-12T11:28:25;26.75;;;10.20;;
74074;SDS011;62428;51.412;5.432;2023-02-12T11:31:02;23.35;;;10.27;;
74074;SDS011;62428;51.412;5.432;2023-02-12T11:33:44;27.27;;;10.68;;
74074;SDS011;62428;51.412;5.432;2023-02-12T11:38:48;24.00;;;10.80;;
74074;SDS011;62428;51.412;5.432;2023-02-12T11:41:49;22.75;;;9.60;;
74074;SDS011;62428;51.412;5.432;2023-02-12T11:44:08;25.58;;;10.32;;
74074;SDS011;62428;51.412;5.432;2023-02-12T11:46:45;23.40;;;10.20;;
74074;SDS011;62428;51.412;5.432;2023-02-12T11:49:22;27.70;;;11.23;;
74074;SDS011;62428;51.412;5.432;2023-02-12T11:51:51;23.00;;;10.80;;
74074;SDS011;62428;51.412;5.432;2023-02-12T11:54:19;26.88;;;10.77;;
74074;SDS011;62428;51.412;5.432;2023-02-12T11:56:47;24.60;;;10.27;;
74074;SDS011;62428;51.412;5.432;2023-02-12T12:02:24;26.42;;;10.90;;
74074;SDS011;62428;51.412;5.432;2023-02-12T12:05:04;27.92;;;10.82;;
74074;SDS011;62428;51.412;5.432;2023-02-12T12:07:33;24.73;;;10.73;;
74074;SDS011;62428;51.412;5.432;2023-02-12T12:12:48;25.67;;;10.85;;
74074;SDS011;62428;51.412;5.432;2023-02-12T12:18:45;21.00;;;9.95;;
74074;SDS011;62428;51.412;5.432;2023-02-12T12:21:26;25.40;;;11.18;;
74074;SDS011;62428;51.412;5.432;2023-02-12T12:23:59;25.02;;;10.02;;
74074;SDS011;62428;51.412;5.432;2023-02-12T12:26:33;26.50;;;10.77;;
74074;SDS011;62428;51.412;5.432;2023-02-12T12:29:19;25.27;;;10.50;;
74074;SDS011;62428;51.412;5.432;2023-02-12T12:31:57;26.08;;;10.55;;
74074;SDS011;62428;51.412;5.432;2023-02-12T12:34:26;21.85;;;9.82;;
74074;SDS011;62428;51.412;5.432;2023-02-12T12:49:01;21.92;;;10.20;;
74074;SDS011;62428;51.412;5.432;2023-02-12T12:54:42;24.73;;;10.90;;
74074;SDS011;62428;51.412;5.432;2023-02-12T13:00:02;23.08;;;10.30;;
74074;SDS011;62428;51.412;5.432;2023-02-12T13:10:56;26.77;;;10.20;;
74074;SDS011;62428;51.412;5.432;2023-02-12T13:13:32;21.95;;;9.88;;
74074;SDS011;62428;51.412;5.432;2023-02-12T13:16:16;25.67;;;10.38;;
74074;SDS011;62428;51.412;5.432;2023-02-12T13:19:01;22.23;;;9.13;;
74074;SDS011;62428;51.412;5.432;2023-02-12T13:21:43;23.02;;;10.13;;
74074;SDS011;62428;51.412;5.432;2023-02-12T13:27:27;25.15;;;10.32;;
74074;SDS011;62428;51.412;5.432;2023-02-12T13:32:42;28.15;;;11.13;;
74074;SDS011;62428;51.412;5.432;2023-02-12T13:35:22;23.30;;;10.00;;
74074;SDS011;62428;51.412;5.432;2023-02-12T13:37:53;24.13;;;9.87;;
74074;SDS011;62428;51.412;5.432;2023-02-12T13:40:24;29.40;;;10.95;;
74074;SDS011;62428;51.412;5.432;2023-02-12T13:42:57;26.10;;;10.80;;
74074;SDS011;62428;51.412;5.432;2023-02-12T13:45:49;25.70;;;10.50;;
74074;SDS011;62428;51.412;5.432;2023-02-12T13:51:40;23.83;;;10.37;;
74074;SDS011;62428;51.412;5.432;2023-02-12T13:57:12;22.42;;;9.48;;
74074;SDS011;62428;51.412;5.432;2023-02-12T13:59:41;25.60;;;10.43;;
74074;SDS011;62428;51.412;5.432;2023-02-12T14:02:25;36.70;;;10.32;;
74074;SDS011;62428;51.412;5.432;2023-02-12T14:07:39;25.15;;;9.85;;
74074;SDS011;62428;51.412;5.432;2023-02-12T14:10:05;23.48;;;10.13;;
74074;SDS011;62428;51.412;5.432;2023-02-12T14:12:33;26.38;;;10.40;;
74074;SDS011;62428;51.412;5.432;2023-02-12T14:17:51;23.87;;;10.40;;
74074;SDS011;62428;51.412;5.432;2023-02-12T14:20:30;24.95;;;10.02;;
74074;SDS011;62428;51.412;5.432;2023-02-12T14:23:19;28.58;;;11.57;;
74074;SDS011;62428;51.412;5.432;2023-02-12T14:26:32;25.77;;;10.10;;
74074;SDS011;62428;51.412;5.432;2023-02-12T14:31:36;24.60;;;10.33;;
74074;SDS011;62428;51.412;5.432;2023-02-12T14:36:38;23.42;;;10.48;;
74074;SDS011;62428;51.412;5.432;2023-02-12T14:39:28;23.55;;;10.05;;
74074;SDS011;62428;51.412;5.432;2023-02-12T14:47:00;26.73;;;11.27;;
74074;SDS011;62428;51.412;5.432;2023-02-12T14:49:47;25.92;;;11.13;;
74074;SDS011;62428;51.412;5.432;2023-02-12T14:52:20;25.30;;;10.48;;
74074;SDS011;62428;51.412;5.432;2023-02-12T14:54:53;22.58;;;9.65;;
74074;SDS011;62428;51.412;5.432;2023-02-12T14:59:55;22.63;;;10.27;;
74074;SDS011;62428;51.412;5.432;2023-02-12T15:02:24;27.58;;;11.18;;
74074;SDS011;62428;51.412;5.432;2023-02-12T15:04:52;30.60;;;11.63;;
74074;SDS011;62428;51.412;5.432;2023-02-12T15:07:26;29.33;;;10.98;;
74074;SDS011;62428;51.412;5.432;2023-02-12T15:10:06;27.77;;;11.75;;
74074;SDS011;62428;51.412;5.432;2023-02-12T15:12:45;24.83;;;10.60;;
74074;SDS011;62428;51.412;5.432;2023-02-12T15:15:30;29.00;;;11.25;;
74074;SDS011;62428;51.412;5.432;2023-02-12T15:18:02;29.10;;;11.32;;
74074;SDS011;62428;51.412;5.432;2023-02-12T15:20:47;30.05;;;11.50;;
74074;SDS011;62428;51.412;5.432;2023-02-12T15:23:32;27.90;;;11.85;;
74074;SDS011;62428;51.412;5.432;2023-02-12T15:26:03;28.87;;;10.83;;
74074;SDS011;62428;51.412;5.432;2023-02-12T15:28:31;32.10;;;12.68;;
74074;SDS011;62428;51.412;5.432;2023-02-12T15:31:00;29.38;;;11.93;;
74074;SDS011;62428;51.412;5.432;2023-02-12T15:33:28;25.85;;;11.40;;
74074;SDS011;62428;51.412;5.432;2023-02-12T15:35:59;35.42;;;12.77;;
74074;SDS011;62428;51.412;5.432;2023-02-12T15:38:32;30.60;;;12.57;;
74074;SDS011;62428;51.412;5.432;2023-02-12T15:41:00;34.88;;;12.82;;
74074;SDS011;62428;51.412;5.432;2023-02-12T15:43:27;28.73;;;11.90;;
74074;SDS011;62428;51.412;5.432;2023-02-12T15:45:56;28.15;;;11.98;;
74074;SDS011;62428;51.412;5.432;2023-02-12T15:48:22;30.60;;;12.57;;
74074;SDS011;62428;51.412;5.432;2023-02-12T15:53:27;31.30;;;12.27;;
74074;SDS011;62428;51.412;5.432;2023-02-12T15:55:55;30.63;;;13.40;;
74074;SDS011;62428;51.412;5.432;2023-02-12T16:01:50;32.00;;;13.25;;
74074;SDS011;62428;51.412;5.432;2023-02-12T16:04:04;31.88;;;12.82;;
74074;SDS011;62428;51.412;5.432;2023-02-12T16:06:31;33.05;;;13.38;;
74074;SDS011;62428;51.412;5.432;2023-02-12T16:09:06;30.77;;;12.38;;
74074;SDS011;62428;51.412;5.432;2023-02-12T16:11:36;30.67;;;12.95;;
74074;SDS011;62428;51.412;5.432;2023-02-12T16:14:04;35.97;;;12.57;;
74074;SDS011;62428;51.412;5.432;2023-02-12T16:16:44;32.45;;;13.23;;
74074;SDS011;62428;51.412;5.432;2023-02-12T16:19:16;30.05;;;12.52;;
74074;SDS011;62428;51.412;5.432;2023-02-12T16:21:52;34.08;;;13.20;;
74074;SDS011;62428;51.412;5.432;2023-02-12T16:24:44;31.88;;;12.55;;
74074;SDS011;62428;51.412;5.432;2023-02-12T16:29:46;31.58;;;12.38;;
74074;SDS011;62428;51.412;5.432;2023-02-12T16:35:01;33.58;;;12.88;;
74074;SDS011;62428;51.412;5.432;2023-02-12T16:42:48;29.80;;;12.68;;
74074;SDS011;62428;51.412;5.432;2023-02-12T16:47:56;33.05;;;13.13;;
74074;SDS011;62428;51.412;5.432;2023-02-12T16:50:28;31.23;;;12.73;;
74074;SDS011;62428;51.412;5.432;2023-02-12T16:53:01;31.25;;;12.00;;
74074;SDS011;62428;51.412;5.432;2023-02-12T16:55:28;32.17;;;13.20;;
74074;SDS011;62428;51.412;5.432;2023-02-12T16:57:54;33.33;;;13.27;;
74074;SDS011;62428;51.412;5.432;2023-02-12T17:00:19;37.20;;;14.30;;
74074;SDS011;62428;51.412;5.432;2023-02-12T17:02:45;32.08;;;12.77;;
74074;SDS011;62428;51.412;5.432;2023-02-12T17:05:11;33.90;;;14.10;;
74074;SDS011;62428;51.412;5.432;2023-02-12T17:07:40;32.25;;;12.30;;
74074;SDS011;62428;51.412;5.432;2023-02-12T17:10:06;36.42;;;12.48;;
74074;SDS011;62428;51.412;5.432;2023-02-12T17:12:32;33.63;;;14.52;;
74074;SDS011;62428;51.412;5.432;2023-02-12T17:15:01;33.97;;;13.60;;
74074;SDS011;62428;51.412;5.432;2023-02-12T17:17:31;37.73;;;14.53;;